Rothschild, Wisconsin
Current Conditions -  °F | °C
As of 7:54 PM on Monday 20 Oct 2014 (Local Time) from KAUW Reporting Station
Overcast Overcast  
Wind Chill:   Ceiling: 4600
Heat Index:   Visibility: 10mi
Dew Point:   Wind: 0mph
Humidity: 77%   Direction: NA
Pressure: 30.02"   Gusts: NA
Location:  44.89°N, 89.62°W
Report Text: KAUW 210054Z AUTO 00000KT 10SM OVC046 08/04 A3002 RMK AO2 SLP176 T00830044
Loading
Personal Weather Stations






























Interactive Weather Map
Tropical Storm Tracking
New forecast layout! Learn more

10-Day Weather Forecast

Advertisements
Track Severe Weather on mobile